LIMC/MXP METAR and TAF weather

Enter ICAO airport designator
Station Type Date Time Source
LIMC METAR 2021/05/14 06:50 UTC NOAA

LIMC 140650Z 11003KT 050V140 CAVOK 14/12 Q1008 NOSIG


Station Type Date Time Source
LIMC Decoded METAR 2021/05/14 06:50 UTC NOAA

Milano / Malpensa, Italy (LIMC) 45-37N 008-44E 211M
May 14, 2021 - 02:50 AM EDT / 2021.05.14 0650 UTC
Wind: from the ESE (110 degrees) at 3 MPH (3 KT) (direction variable):0
Visibility: greater than 7 mile(s):0
Temperature: 57 F (14 C)
Dew Point: 53 F (12 C)
Relative Humidity: 87%
Pressure (altimeter): 29.77 in. Hg (1008 hPa)
ob: LIMC 140650Z 11003KT 050V140 CAVOK 14/12 Q1008 NOSIG
cycle: 7

Station Type Date Time Source
LIMC TAF 2021/05/14 06:23 UTC NOAA

TAF LIMC 140500Z 1406/1512 VRB05KT 9999 SCT030
TEMPO 1414/1420 4000 TSRA

Example: see airport list